sensor_id;sensor_type;location;lat;lon;timestamp;temperature;humidity
74923;HTU21D;64715;44.760;37.678;2024-03-22T00:00:00;6.22;76.18
74923;HTU21D;64715;44.760;37.678;2024-03-22T00:01:06;6.25;76.12
74923;HTU21D;64715;44.760;37.678;2024-03-22T00:02:07;6.26;76.08
74923;HTU21D;64715;44.760;37.678;2024-03-22T00:03:09;6.28;76.05
74923;HTU21D;64715;44.760;37.678;2024-03-22T00:04:11;6.31;76.18
74923;HTU21D;64715;44.760;37.678;2024-03-22T00:05:12;6.36;76.31
74923;HTU21D;64715;44.760;37.678;2024-03-22T00:06:13;6.40;76.31
74923;HTU21D;64715;44.760;37.678;2024-03-22T00:07:14;6.42;76.31
74923;HTU21D;64715;44.760;37.678;2024-03-22T00:08:15;6.45;76.44
74923;HTU21D;64715;44.760;37.678;2024-03-22T00:09:17;6.49;76.26
74923;HTU21D;64715;44.760;37.678;2024-03-22T00:10:18;6.48;76.10
74923;HTU21D;64715;44.760;37.678;2024-03-22T00:11:18;6.51;76.23
74923;HTU21D;64715;44.760;37.678;2024-03-22T00:12:19;6.52;75.95
74923;HTU21D;64715;44.760;37.678;2024-03-22T00:13:20;6.53;76.05
74923;HTU21D;64715;44.760;37.678;2024-03-22T00:14:21;6.52;75.79
74923;HTU21D;64715;44.760;37.678;2024-03-22T00:15:22;6.51;75.74
74923;HTU21D;64715;44.760;37.678;2024-03-22T00:16:23;6.46;75.83
74923;HTU21D;64715;44.760;37.678;2024-03-22T00:17:24;6.42;75.73
74923;HTU21D;64715;44.760;37.678;2024-03-22T00:18:25;6.40;75.56
74923;HTU21D;64715;44.760;37.678;2024-03-22T00:19:26;6.36;75.49
74923;HTU21D;64715;44.760;37.678;2024-03-22T00:20:27;6.31;75.26
74923;HTU21D;64715;44.760;37.678;2024-03-22T00:21:28;6.29;75.38
74923;HTU21D;64715;44.760;37.678;2024-03-22T00:22:30;6.24;75.42
74923;HTU21D;64715;44.760;37.678;2024-03-22T00:23:31;6.23;75.46
74923;HTU21D;64715;44.760;37.678;2024-03-22T00:24:32;6.21;75.40
74923;HTU21D;64715;44.760;37.678;2024-03-22T00:25:33;6.21;75.80
74923;HTU21D;64715;44.760;37.678;2024-03-22T00:26:34;6.22;75.67
74923;HTU21D;64715;44.760;37.678;2024-03-22T00:27:34;6.23;75.56
74923;HTU21D;64715;44.760;37.678;2024-03-22T00:28:35;6.23;75.62
74923;HTU21D;64715;44.760;37.678;2024-03-22T00:29:36;6.23;75.45
74923;HTU21D;64715;44.760;37.678;2024-03-22T00:30:37;6.21;75.37
74923;HTU21D;64715;44.760;37.678;2024-03-22T00:31:38;6.19;75.36
74923;HTU21D;64715;44.760;37.678;2024-03-22T00:32:39;6.19;75.32
74923;HTU21D;64715;44.760;37.678;2024-03-22T00:33:40;6.16;75.50
74923;HTU21D;64715;44.760;37.678;2024-03-22T00:34:42;6.16;75.41
74923;HTU21D;64715;44.760;37.678;2024-03-22T00:35:42;6.15;75.27
74923;HTU21D;64715;44.760;37.678;2024-03-22T00:36:43;6.14;75.44
74923;HTU21D;64715;44.760;37.678;2024-03-22T00:37:45;6.16;75.53
74923;HTU21D;64715;44.760;37.678;2024-03-22T00:38:47;6.13;75.44
74923;HTU21D;64715;44.760;37.678;2024-03-22T00:39:48;6.13;75.31
74923;HTU21D;64715;44.760;37.678;2024-03-22T00:40:49;6.12;75.37
74923;HTU21D;64715;44.760;37.678;2024-03-22T00:41:50;6.11;75.26
74923;HTU21D;64715;44.760;37.678;2024-03-22T00:42:51;6.11;75.20
74923;HTU21D;64715;44.760;37.678;2024-03-22T00:43:52;6.12;75.21
74923;HTU21D;64715;44.760;37.678;2024-03-22T00:44:52;6.10;75.21
74923;HTU21D;64715;44.760;37.678;2024-03-22T00:45:55;6.10;75.26
74923;HTU21D;64715;44.760;37.678;2024-03-22T00:46:56;6.09;75.08
74923;HTU21D;64715;44.760;37.678;2024-03-22T00:47:57;6.08;75.25
74923;HTU21D;64715;44.760;37.678;2024-03-22T00:48:58;6.06;75.24
74923;HTU21D;64715;44.760;37.678;2024-03-22T00:49:59;6.05;75.15
74923;HTU21D;64715;44.760;37.678;2024-03-22T00:51:02;6.04;74.91
74923;HTU21D;64715;44.760;37.678;2024-03-22T00:52:03;6.00;74.94
74923;HTU21D;64715;44.760;37.678;2024-03-22T00:53:04;5.96;75.12
74923;HTU21D;64715;44.760;37.678;2024-03-22T00:54:07;5.95;75.12
74923;HTU21D;64715;44.760;37.678;2024-03-22T00:55:08;5.95;75.07
74923;HTU21D;64715;44.760;37.678;2024-03-22T00:56:09;5.93;74.94
74923;HTU21D;64715;44.760;37.678;2024-03-22T00:57:10;5.92;74.99
74923;HTU21D;64715;44.760;37.678;2024-03-22T00:58:11;5.87;74.96
74923;HTU21D;64715;44.760;37.678;2024-03-22T00:59:11;5.87;75.24
74923;HTU21D;64715;44.760;37.678;2024-03-22T01:00:13;5.87;75.21
74923;HTU21D;64715;44.760;37.678;2024-03-22T01:01:14;5.85;75.11
74923;HTU21D;64715;44.760;37.678;2024-03-22T01:02:15;5.87;75.22
74923;HTU21D;64715;44.760;37.678;2024-03-22T01:03:16;5.83;74.96
74923;HTU21D;64715;44.760;37.678;2024-03-22T01:04:17;5.83;75.02
74923;HTU21D;64715;44.760;37.678;2024-03-22T01:05:18;5.83;75.20
74923;HTU21D;64715;44.760;37.678;2024-03-22T01:06:19;5.82;75.17
74923;HTU21D;64715;44.760;37.678;2024-03-22T01:07:25;5.80;75.09
74923;HTU21D;64715;44.760;37.678;2024-03-22T01:08:26;5.77;75.11
74923;HTU21D;64715;44.760;37.678;2024-03-22T01:09:27;5.74;75.05
74923;HTU21D;64715;44.760;37.678;2024-03-22T01:10:29;5.70;74.99
74923;HTU21D;64715;44.760;37.678;2024-03-22T01:11:30;5.68;75.18
74923;HTU21D;64715;44.760;37.678;2024-03-22T01:12:31;5.66;75.02
74923;HTU21D;64715;44.760;37.678;2024-03-22T01:13:32;5.63;75.15
74923;HTU21D;64715;44.760;37.678;2024-03-22T01:14:33;5.62;75.11
74923;HTU21D;64715;44.760;37.678;2024-03-22T01:15:34;5.57;75.13
74923;HTU21D;64715;44.760;37.678;2024-03-22T01:16:35;5.59;75.13
74923;HTU21D;64715;44.760;37.678;2024-03-22T01:17:36;5.56;75.27
74923;HTU21D;64715;44.760;37.678;2024-03-22T01:18:37;5.54;75.11
74923;HTU21D;64715;44.760;37.678;2024-03-22T01:19:38;5.53;75.21
74923;HTU21D;64715;44.760;37.678;2024-03-22T01:20:39;5.50;75.25
74923;HTU21D;64715;44.760;37.678;2024-03-22T01:21:40;5.51;75.50
74923;HTU21D;64715;44.760;37.678;2024-03-22T01:22:41;5.52;75.33
74923;HTU21D;64715;44.760;37.678;2024-03-22T01:23:42;5.53;75.19
74923;HTU21D;64715;44.760;37.678;2024-03-22T01:24:43;5.53;75.35
74923;HTU21D;64715;44.760;37.678;2024-03-22T01:25:45;5.52;75.38
74923;HTU21D;64715;44.760;37.678;2024-03-22T01:26:46;5.52;75.28
74923;HTU21D;64715;44.760;37.678;2024-03-22T01:27:47;5.51;75.34
74923;HTU21D;64715;44.760;37.678;2024-03-22T01:28:48;5.51;75.31
74923;HTU21D;64715;44.760;37.678;2024-03-22T01:29:48;5.47;75.13
74923;HTU21D;64715;44.760;37.678;2024-03-22T01:30:49;5.45;75.28
74923;HTU21D;64715;44.760;37.678;2024-03-22T01:31:50;5.42;75.13
74923;HTU21D;64715;44.760;37.678;2024-03-22T01:32:51;5.39;75.11
74923;HTU21D;64715;44.760;37.678;2024-03-22T01:33:52;5.38;75.23
74923;HTU21D;64715;44.760;37.678;2024-03-22T01:34:53;5.39;75.41
74923;HTU21D;64715;44.760;37.678;2024-03-22T01:35:54;5.41;75.44
74923;HTU21D;64715;44.760;37.678;2024-03-22T01:36:56;5.39;75.47
74923;HTU21D;64715;44.760;37.678;2024-03-22T01:37:56;5.38;75.31
74923;HTU21D;64715;44.760;37.678;2024-03-22T01:41:19;5.27;75.25
74923;HTU21D;64715;44.760;37.678;2024-03-22T01:42:20;5.24;75.27
74923;HTU21D;64715;44.760;37.678;2024-03-22T01:43:21;5.21;75.05
74923;HTU21D;64715;44.760;37.678;2024-03-22T01:44:27;5.18;75.04
74923;HTU21D;64715;44.760;37.678;2024-03-22T01:45:32;5.13;75.09
74923;HTU21D;64715;44.760;37.678;2024-03-22T01:46:33;5.09;75.37
74923;HTU21D;64715;44.760;37.678;2024-03-22T01:47:34;5.08;75.41
74923;HTU21D;64715;44.760;37.678;2024-03-22T01:48:36;5.06;75.54
74923;HTU21D;64715;44.760;37.678;2024-03-22T01:49:37;5.05;75.45
74923;HTU21D;64715;44.760;37.678;2024-03-22T01:50:38;5.02;75.44
74923;HTU21D;64715;44.760;37.678;2024-03-22T01:51:39;4.98;75.34
74923;HTU21D;64715;44.760;37.678;2024-03-22T01:52:41;4.95;75.52
74923;HTU21D;64715;44.760;37.678;2024-03-22T01:53:42;4.93;75.55
74923;HTU21D;64715;44.760;37.678;2024-03-22T01:54:43;4.89;75.60
74923;HTU21D;64715;44.760;37.678;2024-03-22T01:55:44;4.87;75.36
74923;HTU21D;64715;44.760;37.678;2024-03-22T01:56:46;4.82;75.38
74923;HTU21D;64715;44.760;37.678;2024-03-22T01:57:48;4.82;75.51
74923;HTU21D;64715;44.760;37.678;2024-03-22T01:58:50;4.80;75.50
74923;HTU21D;64715;44.760;37.678;2024-03-22T01:59:54;4.78;75.56
74923;HTU21D;64715;44.760;37.678;2024-03-22T02:00:56;4.78;75.49
74923;HTU21D;64715;44.760;37.678;2024-03-22T02:01:57;4.74;75.60
74923;HTU21D;64715;44.760;37.678;2024-03-22T02:02:58;4.72;75.57
74923;HTU21D;64715;44.760;37.678;2024-03-22T02:03:59;4.69;75.41
74923;HTU21D;64715;44.760;37.678;2024-03-22T02:05:17;4.69;75.51
74923;HTU21D;64715;44.760;37.678;2024-03-22T02:06:22;4.67;75.42
74923;HTU21D;64715;44.760;37.678;2024-03-22T02:07:23;4.66;75.57
74923;HTU21D;64715;44.760;37.678;2024-03-22T02:08:24;4.64;75.65
74923;HTU21D;64715;44.760;37.678;2024-03-22T02:09:26;4.64;75.54
74923;HTU21D;64715;44.760;37.678;2024-03-22T02:10:27;4.63;75.60
74923;HTU21D;64715;44.760;37.678;2024-03-22T02:11:28;4.60;75.61
74923;HTU21D;64715;44.760;37.678;2024-03-22T02:12:30;4.60;75.57
74923;HTU21D;64715;44.760;37.678;2024-03-22T02:13:30;4.59;75.54
74923;HTU21D;64715;44.760;37.678;2024-03-22T02:14:31;4.58;75.72
74923;HTU21D;64715;44.760;37.678;2024-03-22T02:15:33;4.57;75.78
74923;HTU21D;64715;44.760;37.678;2024-03-22T02:16:33;4.56;75.59
74923;HTU21D;64715;44.760;37.678;2024-03-22T02:17:35;4.54;75.61
74923;HTU21D;64715;44.760;37.678;2024-03-22T02:18:36;4.52;75.76
74923;HTU21D;64715;44.760;37.678;2024-03-22T02:19:37;4.51;75.70
74923;HTU21D;64715;44.760;37.678;2024-03-22T02:20:38;4.50;76.04
74923;HTU21D;64715;44.760;37.678;2024-03-22T02:21:39;4.51;75.86
74923;HTU21D;64715;44.760;37.678;2024-03-22T02:22:40;4.51;76.05
74923;HTU21D;64715;44.760;37.678;2024-03-22T02:23:41;4.51;75.99
74923;HTU21D;64715;44.760;37.678;2024-03-22T02:24:42;4.51;76.03
74923;HTU21D;64715;44.760;37.678;2024-03-22T02:25:43;4.52;75.98
74923;HTU21D;64715;44.760;37.678;2024-03-22T02:26:44;4.51;76.05
74923;HTU21D;64715;44.760;37.678;2024-03-22T02:27:45;4.51;75.84
74923;HTU21D;64715;44.760;37.678;2024-03-22T02:28:46;4.50;75.83
74923;HTU21D;64715;44.760;37.678;2024-03-22T02:29:47;4.51;75.79
74923;HTU21D;64715;44.760;37.678;2024-03-22T02:30:48;4.49;75.88
74923;HTU21D;64715;44.760;37.678;2024-03-22T02:31:49;4.48;75.83
74923;HTU21D;64715;44.760;37.678;2024-03-22T02:32:50;4.48;75.83
74923;HTU21D;64715;44.760;37.678;2024-03-22T02:33:51;4.48;75.76
74923;HTU21D;64715;44.760;37.678;2024-03-22T02:34:52;4.46;75.82
74923;HTU21D;64715;44.760;37.678;2024-03-22T02:35:53;4.45;75.76
74923;HTU21D;64715;44.760;37.678;2024-03-22T02:36:53;4.44;75.73
74923;HTU21D;64715;44.760;37.678;2024-03-22T02:37:54;4.45;75.72
74923;HTU21D;64715;44.760;37.678;2024-03-22T02:38:55;4.43;75.67
74923;HTU21D;64715;44.760;37.678;2024-03-22T02:39:56;4.44;75.54
74923;HTU21D;64715;44.760;37.678;2024-03-22T02:40:58;4.45;75.66
74923;HTU21D;64715;44.760;37.678;2024-03-22T02:41:59;4.46;75.58
74923;HTU21D;64715;44.760;37.678;2024-03-22T02:43:00;4.48;75.79
74923;HTU21D;64715;44.760;37.678;2024-03-22T02:44:01;4.48;75.58
74923;HTU21D;64715;44.760;37.678;2024-03-22T02:45:01;4.49;75.52
74923;HTU21D;64715;44.760;37.678;2024-03-22T02:46:02;4.48;75.61
74923;HTU21D;64715;44.760;37.678;2024-03-22T02:47:04;4.48;75.54
74923;HTU21D;64715;44.760;37.678;2024-03-22T02:48:05;4.47;75.55
74923;HTU21D;64715;44.760;37.678;2024-03-22T02:49:07;4.46;75.56
74923;HTU21D;64715;44.760;37.678;2024-03-22T02:50:08;4.45;75.42
74923;HTU21D;64715;44.760;37.678;2024-03-22T02:51:09;4.44;75.43
74923;HTU21D;64715;44.760;37.678;2024-03-22T02:52:10;4.44;75.49
74923;HTU21D;64715;44.760;37.678;2024-03-22T02:53:11;4.44;75.49
74923;HTU21D;64715;44.760;37.678;2024-03-22T02:54:12;4.44;75.31
74923;HTU21D;64715;44.760;37.678;2024-03-22T02:55:13;4.43;75.33
74923;HTU21D;64715;44.760;37.678;2024-03-22T02:56:14;4.44;75.34
74923;HTU21D;64715;44.760;37.678;2024-03-22T02:57:15;4.45;75.29
74923;HTU21D;64715;44.760;37.678;2024-03-22T02:58:17;4.46;75.51
74923;HTU21D;64715;44.760;37.678;2024-03-22T02:59:18;4.45;75.31
74923;HTU21D;64715;44.760;37.678;2024-03-22T03:00:19;4.47;75.30
74923;HTU21D;64715;44.760;37.678;2024-03-22T03:01:20;4.48;75.60
74923;HTU21D;64715;44.760;37.678;2024-03-22T03:02:21;4.49;75.57
74923;HTU21D;64715;44.760;37.678;2024-03-22T03:03:22;4.50;75.35
74923;HTU21D;64715;44.760;37.678;2024-03-22T03:04:23;4.50;75.28
74923;HTU21D;64715;44.760;37.678;2024-03-22T03:05:24;4.52;75.40
74923;HTU21D;64715;44.760;37.678;2024-03-22T03:06:25;4.52;75.36
74923;HTU21D;64715;44.760;37.678;2024-03-22T03:07:26;4.54;75.38
74923;HTU21D;64715;44.760;37.678;2024-03-22T03:08:30;4.57;75.17
74923;HTU21D;64715;44.760;37.678;2024-03-22T03:09:31;4.58;75.09
74923;HTU21D;64715;44.760;37.678;2024-03-22T03:10:32;4.60;75.18
74923;HTU21D;64715;44.760;37.678;2024-03-22T03:11:33;4.59;75.18
74923;HTU21D;64715;44.760;37.678;2024-03-22T03:12:34;4.60;75.15
74923;HTU21D;64715;44.760;37.678;2024-03-22T03:13:35;4.60;75.06
74923;HTU21D;64715;44.760;37.678;2024-03-22T03:14:37;4.62;75.18
74923;HTU21D;64715;44.760;37.678;2024-03-22T03:15:38;4.61;75.21
74923;HTU21D;64715;44.760;37.678;2024-03-22T03:16:39;4.62;75.04
74923;HTU21D;64715;44.760;37.678;2024-03-22T03:17:40;4.61;75.21
74923;HTU21D;64715;44.760;37.678;2024-03-22T03:18:41;4.62;75.03
74923;HTU21D;64715;44.760;37.678;2024-03-22T03:19:41;4.59;74.92
74923;HTU21D;64715;44.760;37.678;2024-03-22T03:20:43;4.58;74.89
74923;HTU21D;64715;44.760;37.678;2024-03-22T03:21:44;4.57;74.83
74923;HTU21D;64715;44.760;37.678;2024-03-22T03:22:45;4.54;75.00
74923;HTU21D;64715;44.760;37.678;2024-03-22T03:23:46;4.52;74.92
74923;HTU21D;64715;44.760;37.678;2024-03-22T03:24:47;4.50;74.83
74923;HTU21D;64715;44.760;37.678;2024-03-22T03:25:48;4.50;74.96
74923;HTU21D;64715;44.760;37.678;2024-03-22T03:26:49;4.46;74.69
74923;HTU21D;64715;44.760;37.678;2024-03-22T03:27:50;4.46;74.86
74923;HTU21D;64715;44.760;37.678;2024-03-22T03:28:51;4.44;75.13
74923;HTU21D;64715;44.760;37.678;2024-03-22T03:29:51;4.43;74.98
74923;HTU21D;64715;44.760;37.678;2024-03-22T03:30:52;4.41;75.06
74923;HTU21D;64715;44.760;37.678;2024-03-22T03:31:53;4.38;74.99
74923;HTU21D;64715;44.760;37.678;2024-03-22T03:32:54;4.34;74.87
74923;HTU21D;64715;44.760;37.678;2024-03-22T03:33:55;4.33;75.15
74923;HTU21D;64715;44.760;37.678;2024-03-22T03:34:56;4.29;74.79
74923;HTU21D;64715;44.760;37.678;2024-03-22T03:35:57;4.27;75.04
74923;HTU21D;64715;44.760;37.678;2024-03-22T03:36:58;4.24;74.89
74923;HTU21D;64715;44.760;37.678;2024-03-22T03:38:01;4.21;75.09
74923;HTU21D;64715;44.760;37.678;2024-03-22T03:39:02;4.20;75.05
74923;HTU21D;64715;44.760;37.678;2024-03-22T03:40:05;4.20;74.92
74923;HTU21D;64715;44.760;37.678;2024-03-22T03:41:06;4.18;75.24
74923;HTU21D;64715;44.760;37.678;2024-03-22T03:42:07;4.16;74.99
74923;HTU21D;64715;44.760;37.678;2024-03-22T03:43:08;4.14;75.16
74923;HTU21D;64715;44.760;37.678;2024-03-22T03:44:09;4.14;74.91
74923;HTU21D;64715;44.760;37.678;2024-03-22T03:45:10;4.15;74.82
74923;HTU21D;64715;44.760;37.678;2024-03-22T03:46:11;4.15;75.21
74923;HTU21D;64715;44.760;37.678;2024-03-22T03:47:12;4.15;75.09
74923;HTU21D;64715;44.760;37.678;2024-03-22T03:48:13;4.14;74.84
74923;HTU21D;64715;44.760;37.678;2024-03-22T03:49:14;4.13;74.84
74923;HTU21D;64715;44.760;37.678;2024-03-22T03:50:15;4.12;75.03
74923;HTU21D;64715;44.760;37.678;2024-03-22T03:51:16;4.09;74.80
74923;HTU21D;64715;44.760;37.678;2024-03-22T03:52:17;4.09;74.95
74923;HTU21D;64715;44.760;37.678;2024-03-22T03:53:18;4.08;74.95
74923;HTU21D;64715;44.760;37.678;2024-03-22T03:54:19;4.07;74.63
74923;HTU21D;64715;44.760;37.678;2024-03-22T03:55:21;4.05;74.80
74923;HTU21D;64715;44.760;37.678;2024-03-22T03:56:22;4.05;74.86
74923;HTU21D;64715;44.760;37.678;2024-03-22T03:57:23;4.03;74.93
74923;HTU21D;64715;44.760;37.678;2024-03-22T03:58:24;4.03;74.76
74923;HTU21D;64715;44.760;37.678;2024-03-22T03:59:25;4.02;74.73
74923;HTU21D;64715;44.760;37.678;2024-03-22T04:00:26;4.01;74.71
74923;HTU21D;64715;44.760;37.678;2024-03-22T04:01:27;3.99;74.97
74923;HTU21D;64715;44.760;37.678;2024-03-22T04:02:28;3.97;74.88
74923;HTU21D;64715;44.760;37.678;2024-03-22T04:03:29;3.94;74.84
74923;HTU21D;64715;44.760;37.678;2024-03-22T04:04:30;3.93;74.92
74923;HTU21D;64715;44.760;37.678;2024-03-22T04:05:31;3.92;75.13
74923;HTU21D;64715;44.760;37.678;2024-03-22T04:06:32;3.91;74.81
74923;HTU21D;64715;44.760;37.678;2024-03-22T04:07:33;3.91;74.88
74923;HTU21D;64715;44.760;37.678;2024-03-22T04:08:34;3.91;74.75
74923;HTU21D;64715;44.760;37.678;2024-03-22T04:09:35;3.90;74.95
74923;HTU21D;64715;44.760;37.678;2024-03-22T04:10:36;3.91;74.82
74923;HTU21D;64715;44.760;37.678;2024-03-22T04:11:37;3.90;74.89
74923;HTU21D;64715;44.760;37.678;2024-03-22T04:12:38;3.90;74.84
74923;HTU21D;64715;44.760;37.678;2024-03-22T04:13:39;3.89;74.92
74923;HTU21D;64715;44.760;37.678;2024-03-22T04:14:40;3.88;74.70
74923;HTU21D;64715;44.760;37.678;2024-03-22T04:15:40;3.87;74.99
74923;HTU21D;64715;44.760;37.678;2024-03-22T04:16:41;3.86;74.94
74923;HTU21D;64715;44.760;37.678;2024-03-22T04:17:42;3.84;74.79
74923;HTU21D;64715;44.760;37.678;2024-03-22T04:18:43;3.84;74.97
74923;HTU21D;64715;44.760;37.678;2024-03-22T04:19:44;3.83;74.86
74923;HTU21D;64715;44.760;37.678;2024-03-22T04:20:55;3.79;74.93
74923;HTU21D;64715;44.760;37.678;2024-03-22T04:21:56;3.76;74.86
74923;HTU21D;64715;44.760;37.678;2024-03-22T04:22:57;3.73;75.01
74923;HTU21D;64715;44.760;37.678;2024-03-22T04:23:58;3.71;74.94
74923;HTU21D;64715;44.760;37.678;2024-03-22T04:24:59;3.67;75.03
74923;HTU21D;64715;44.760;37.678;2024-03-22T04:26:02;3.64;74.99
74923;HTU21D;64715;44.760;37.678;2024-03-22T04:27:03;3.62;75.02
74923;HTU21D;64715;44.760;37.678;2024-03-22T04:28:05;3.62;74.96
74923;HTU21D;64715;44.760;37.678;2024-03-22T04:29:06;3.60;75.05
74923;HTU21D;64715;44.760;37.678;2024-03-22T04:30:07;3.60;75.06
74923;HTU21D;64715;44.760;37.678;2024-03-22T04:31:09;3.59;75.00
74923;HTU21D;64715;44.760;37.678;2024-03-22T04:32:10;3.56;75.11
74923;HTU21D;64715;44.760;37.678;2024-03-22T04:33:11;3.56;75.02
74923;HTU21D;64715;44.760;37.678;2024-03-22T04:34:12;3.54;75.14
74923;HTU21D;64715;44.760;37.678;2024-03-22T04:35:13;3.50;75.15
74923;HTU21D;64715;44.760;37.678;2024-03-22T04:36:15;3.48;75.33
74923;HTU21D;64715;44.760;37.678;2024-03-22T04:37:16;3.47;75.23
74923;HTU21D;64715;44.760;37.678;2024-03-22T04:38:17;3.45;75.30
74923;HTU21D;64715;44.760;37.678;2024-03-22T04:39:22;3.42;75.26
74923;HTU21D;64715;44.760;37.678;2024-03-22T04:40:23;3.40;75.17
74923;HTU21D;64715;44.760;37.678;2024-03-22T04:41:25;3.39;75.03
74923;HTU21D;64715;44.760;37.678;2024-03-22T04:42:26;3.36;75.10
74923;HTU21D;64715;44.760;37.678;2024-03-22T04:43:28;3.34;75.28
74923;HTU21D;64715;44.760;37.678;2024-03-22T04:44:29;3.33;75.21
74923;HTU21D;64715;44.760;37.678;2024-03-22T04:45:30;3.33;75.36
74923;HTU21D;64715;44.760;37.678;2024-03-22T04:46:30;3.32;75.52
74923;HTU21D;64715;44.760;37.678;2024-03-22T04:47:31;3.29;75.36
74923;HTU21D;64715;44.760;37.678;2024-03-22T04:48:32;3.26;75.60
74923;HTU21D;64715;44.760;37.678;2024-03-22T04:49:33;3.23;75.69
74923;HTU21D;64715;44.760;37.678;2024-03-22T04:50:34;3.20;75.75
74923;HTU21D;64715;44.760;37.678;2024-03-22T04:51:35;3.18;75.71
74923;HTU21D;64715;44.760;37.678;2024-03-22T04:52:36;3.18;75.78
74923;HTU21D;64715;44.760;37.678;2024-03-22T04:53:37;3.16;75.83
74923;HTU21D;64715;44.760;37.678;2024-03-22T04:54:38;3.15;75.72
74923;HTU21D;64715;44.760;37.678;2024-03-22T04:55:39;3.15;75.74
74923;HTU21D;64715;44.760;37.678;2024-03-22T04:56:45;3.13;75.88
74923;HTU21D;64715;44.760;37.678;2024-03-22T04:57:46;3.12;76.02
74923;HTU21D;64715;44.760;37.678;2024-03-22T04:58:47;3.09;76.07
74923;HTU21D;64715;44.760;37.678;2024-03-22T04:59:48;3.09;76.34
74923;HTU21D;64715;44.760;37.678;2024-03-22T05:00:55;3.08;76.13
74923;HTU21D;64715;44.760;37.678;2024-03-22T05:01:56;3.03;76.13
74923;HTU21D;64715;44.760;37.678;2024-03-22T05:02:57;3.04;76.18
74923;HTU21D;64715;44.760;37.678;2024-03-22T05:03:58;3.04;76.14
74923;HTU21D;64715;44.760;37.678;2024-03-22T05:04:59;3.04;76.24
74923;HTU21D;64715;44.760;37.678;2024-03-22T05:06:00;3.04;76.16
74923;HTU21D;64715;44.760;37.678;2024-03-22T05:07:04;3.04;76.34
74923;HTU21D;64715;44.760;37.678;2024-03-22T05:08:06;3.05;76.30
74923;HTU21D;64715;44.760;37.678;2024-03-22T05:09:07;3.06;76.06
74923;HTU21D;64715;44.760;37.678;2024-03-22T05:10:11;3.09;76.17
74923;HTU21D;64715;44.760;37.678;2024-03-22T05:11:12;3.11;76.32
74923;HTU21D;64715;44.760;37.678;2024-03-22T05:12:13;3.14;76.32
74923;HTU21D;64715;44.760;37.678;2024-03-22T05:13:14;3.18;76.21
74923;HTU21D;64715;44.760;37.678;2024-03-22T05:14:15;3.20;76.18
74923;HTU21D;64715;44.760;37.678;2024-03-22T05:15:16;3.23;76.16
74923;HTU21D;64715;44.760;37.678;2024-03-22T05:16:17;3.23;76.05
74923;HTU21D;64715;44.760;37.678;2024-03-22T05:17:18;3.25;76.02
74923;HTU21D;64715;44.760;37.678;2024-03-22T05:18:19;3.27;75.96
74923;HTU21D;64715;44.760;37.678;2024-03-22T05:19:20;3.27;76.18
74923;HTU21D;64715;44.760;37.678;2024-03-22T05:20:21;3.27;75.80
74923;HTU21D;64715;44.760;37.678;2024-03-22T05:21:22;3.31;76.08
74923;HTU21D;64715;44.760;37.678;2024-03-22T05:22:23;3.32;75.84
74923;HTU21D;64715;44.760;37.678;2024-03-22T05:23:24;3.36;76.02
74923;HTU21D;64715;44.760;37.678;2024-03-22T05:24:24;3.39;76.11
74923;HTU21D;64715;44.760;37.678;2024-03-22T05:25:25;3.42;76.02
74923;HTU21D;64715;44.760;37.678;2024-03-22T05:26:26;3.43;75.83
74923;HTU21D;64715;44.760;37.678;2024-03-22T05:27:27;3.44;75.82
74923;HTU21D;64715;44.760;37.678;2024-03-22T05:28:28;3.44;76.02
74923;HTU21D;64715;44.760;37.678;2024-03-22T05:29:31;3.44;75.79
74923;HTU21D;64715;44.760;37.678;2024-03-22T05:30:32;3.42;75.76
74923;HTU21D;64715;44.760;37.678;2024-03-22T05:31:48;3.42;75.97
74923;HTU21D;64715;44.760;37.678;2024-03-22T05:32:51;3.41;75.74
74923;HTU21D;64715;44.760;37.678;2024-03-22T05:33:53;3.38;75.89
74923;HTU21D;64715;44.760;37.678;2024-03-22T05:34:54;3.39;75.76
74923;HTU21D;64715;44.760;37.678;2024-03-22T05:35:55;3.38;75.91
74923;HTU21D;64715;44.760;37.678;2024-03-22T05:36:56;3.38;75.93
74923;HTU21D;64715;44.760;37.678;2024-03-22T05:37:57;3.39;76.08
74923;HTU21D;64715;44.760;37.678;2024-03-22T05:38:58;3.39;76.10
74923;HTU21D;64715;44.760;37.678;2024-03-22T05:40:00;3.38;76.06
74923;HTU21D;64715;44.760;37.678;2024-03-22T05:41:04;3.38;76.35
74923;HTU21D;64715;44.760;37.678;2024-03-22T05:42:05;3.39;76.37
74923;HTU21D;64715;44.760;37.678;2024-03-22T05:43:06;3.39;76.15
74923;HTU21D;64715;44.760;37.678;2024-03-22T05:44:08;3.34;76.31
74923;HTU21D;64715;44.760;37.678;2024-03-22T05:45:09;3.35;76.38
74923;HTU21D;64715;44.760;37.678;2024-03-22T05:46:10;3.33;76.50
74923;HTU21D;64715;44.760;37.678;2024-03-22T05:47:11;3.35;76.38
74923;HTU21D;64715;44.760;37.678;2024-03-22T05:48:12;3.35;76.50
74923;HTU21D;64715;44.760;37.678;2024-03-22T05:49:13;3.36;76.28
74923;HTU21D;64715;44.760;37.678;2024-03-22T05:50:14;3.40;76.39
74923;HTU21D;64715;44.760;37.678;2024-03-22T05:51:15;3.41;76.48
74923;HTU21D;64715;44.760;37.678;2024-03-22T05:52:16;3.44;76.21
74923;HTU21D;64715;44.760;37.678;2024-03-22T05:53:16;3.48;76.31
74923;HTU21D;64715;44.760;37.678;2024-03-22T05:54:17;3.49;76.20
74923;HTU21D;64715;44.760;37.678;2024-03-22T05:55:18;3.50;76.21
74923;HTU21D;64715;44.760;37.678;2024-03-22T05:56:19;3.48;76.37
74923;HTU21D;64715;44.760;37.678;2024-03-22T05:57:20;3.48;76.20
74923;HTU21D;64715;44.760;37.678;2024-03-22T05:58:21;3.46;76.31
74923;HTU21D;64715;44.760;37.678;2024-03-22T05:59:22;3.44;76.27
74923;HTU21D;64715;44.760;37.678;2024-03-22T06:00:23;3.40;76.46
74923;HTU21D;64715;44.760;37.678;2024-03-22T06:01:24;3.38;76.51
74923;HTU21D;64715;44.760;37.678;2024-03-22T06:02:25;3.34;76.41
74923;HTU21D;64715;44.760;37.678;2024-03-22T06:03:26;3.33;76.57
74923;HTU21D;64715;44.760;37.678;2024-03-22T06:04:27;3.31;76.81
74923;HTU21D;64715;44.760;37.678;2024-03-22T06:05:28;3.30;76.79
74923;HTU21D;64715;44.760;37.678;2024-03-22T06:06:29;3.27;76.63
74923;HTU21D;64715;44.760;37.678;2024-03-22T06:07:30;3.23;76.95
74923;HTU21D;64715;44.760;37.678;2024-03-22T06:08:36;3.24;77.15
74923;HTU21D;64715;44.760;37.678;2024-03-22T06:09:40;3.23;76.92
74923;HTU21D;64715;44.760;37.678;2024-03-22T06:10:50;3.20;77.19
74923;HTU21D;64715;44.760;37.678;2024-03-22T06:11:51;3.19;76.87
74923;HTU21D;64715;44.760;37.678;2024-03-22T06:12:52;3.17;77.08
74923;HTU21D;64715;44.760;37.678;2024-03-22T06:13:53;3.16;77.01
74923;HTU21D;64715;44.760;37.678;2024-03-22T06:14:54;3.15;77.05
74923;HTU21D;64715;44.760;37.678;2024-03-22T06:15:54;3.14;77.15
74923;HTU21D;64715;44.760;37.678;2024-03-22T06:16:55;3.14;77.15
74923;HTU21D;64715;44.760;37.678;2024-03-22T06:17:56;3.14;77.23
74923;HTU21D;64715;44.760;37.678;2024-03-22T06:18:57;3.15;77.12
74923;HTU21D;64715;44.760;37.678;2024-03-22T06:19:58;3.14;77.19
74923;HTU21D;64715;44.760;37.678;2024-03-22T06:21:00;3.14;77.30
74923;HTU21D;64715;44.760;37.678;2024-03-22T06:22:01;3.13;77.27
74923;HTU21D;64715;44.760;37.678;2024-03-22T06:23:03;3.13;77.35